createdAt,value
2019-01-30T00:00:55.762Z,100.00
2019-01-30T00:05:59.836Z,100.00
2019-01-30T00:11:04.004Z,100.00
2019-01-30T00:16:08.057Z,100.00
2019-01-30T00:21:12.104Z,100.00
2019-01-30T00:26:16.139Z,100.00
2019-01-30T00:31:20.207Z,100.00
2019-01-30T00:36:25.154Z,100.00
2019-01-30T00:41:29.195Z,100.00
2019-01-30T00:46:33.493Z,100.00
2019-01-30T00:51:37.581Z,100.00
2019-01-30T00:56:41.610Z,100.00
2019-01-30T01:01:45.897Z,100.00
2019-01-30T01:06:49.984Z,100.00
2019-01-30T01:11:54.044Z,100.00
2019-01-30T01:16:58.404Z,100.00
2019-01-30T01:22:02.453Z,100.00
2019-01-30T01:27:06.791Z,100.00
2019-01-30T01:32:11.117Z,100.00
2019-01-30T01:37:16.212Z,100.00
2019-01-30T01:42:20.332Z,100.00
2019-01-30T01:47:24.418Z,100.00
2019-01-30T01:52:28.459Z,100.00
2019-01-30T01:57:32.480Z,100.00
2019-01-30T02:02:36.548Z,100.00
2019-01-30T02:07:40.734Z,100.00
2019-01-30T02:12:44.805Z,100.00
2019-01-30T02:17:49.153Z,100.00
2019-01-30T02:22:53.296Z,100.00
2019-01-30T02:27:57.365Z,100.00
2019-01-30T02:33:01.396Z,100.00
2019-01-30T02:38:05.524Z,100.00
2019-01-30T02:43:09.572Z,100.00
2019-01-30T02:48:13.625Z,100.00
2019-01-30T02:53:17.934Z,100.00
2019-01-30T02:58:21.985Z,100.00
2019-01-30T03:03:26.065Z,100.00
2019-01-30T03:08:30.307Z,100.00
2019-01-30T03:13:34.451Z,100.00
2019-01-30T03:18:38.463Z,100.00
2019-01-30T03:23:42.891Z,100.00
2019-01-30T03:28:46.981Z,100.00
2019-01-30T03:33:51.327Z,100.00
2019-01-30T03:38:55.456Z,100.00
2019-01-30T03:43:59.549Z,100.00
2019-01-30T03:49:03.587Z,100.00
2019-01-30T03:54:07.625Z,100.00
2019-01-30T03:59:11.951Z,100.00
2019-01-30T04:04:15.987Z,100.00
2019-01-30T04:09:20.064Z,100.00
2019-01-30T04:14:24.111Z,100.00
2019-01-30T04:19:28.446Z,100.00
2019-01-30T04:24:33.013Z,100.00
2019-01-30T04:29:37.327Z,100.00
2019-01-30T04:34:41.504Z,100.00
2019-01-30T04:39:45.511Z,100.00
2019-01-30T04:44:49.571Z,100.00
2019-01-30T04:49:53.602Z,100.00
2019-01-30T04:54:57.666Z,100.00
2019-01-30T05:00:01.746Z,100.00
2019-01-30T05:05:07.072Z,100.00
2019-01-30T05:10:12.088Z,100.00
2019-01-30T05:15:17.786Z,100.00
2019-01-30T05:20:21.837Z,100.00
2019-01-30T05:25:26.304Z,100.00
2019-01-30T05:30:31.703Z,100.00
2019-01-30T05:35:36.023Z,100.00
2019-01-30T05:40:40.074Z,100.00
2019-01-30T05:45:44.143Z,100.00
2019-01-30T05:50:48.172Z,100.00
2019-01-30T05:55:52.232Z,100.00
2019-01-30T06:00:56.725Z,100.00
2019-01-30T06:06:00.812Z,100.00
2019-01-30T06:11:04.879Z,100.00
2019-01-30T06:16:08.921Z,100.00
2019-01-30T06:21:13.065Z,100.00
2019-01-30T06:26:17.328Z,100.00
2019-01-30T06:31:21.393Z,100.00
2019-01-30T06:36:25.421Z,100.00
2019-01-30T06:41:29.825Z,100.00
2019-01-30T06:46:34.603Z,100.00
2019-01-30T06:51:46.680Z,100.00
2019-01-30T06:56:51.189Z,100.00
2019-01-30T07:01:55.266Z,100.00
2019-01-30T07:06:59.305Z,100.00
2019-01-30T07:12:10.339Z,100.00
2019-01-30T07:17:14.461Z,100.00
2019-01-30T07:22:18.487Z,100.00
2019-01-30T07:27:22.641Z,100.00
2019-01-30T07:32:26.964Z,100.00
2019-01-30T07:37:33.524Z,100.00
2019-01-30T07:42:41.838Z,100.00
2019-01-30T07:47:46.290Z,100.00
2019-01-30T07:52:50.537Z,100.00
2019-01-30T07:57:54.641Z,100.00
2019-01-30T08:02:58.702Z,100.00
2019-01-30T08:08:03.506Z,100.00
2019-01-30T08:13:07.584Z,100.00
2019-01-30T08:18:12.275Z,100.00
2019-01-30T08:23:16.490Z,100.00
2019-01-30T08:28:20.701Z,100.00
2019-01-30T08:33:24.719Z,100.00
2019-01-30T08:38:28.821Z,100.00
2019-01-30T08:43:32.875Z,100.00
2019-01-30T08:48:38.596Z,100.00
2019-01-30T08:53:42.970Z,100.00
2019-01-30T08:58:47.094Z,100.00
2019-01-30T09:03:52.072Z,100.00
2019-01-30T09:08:56.147Z,100.00
2019-01-30T09:14:00.423Z,99.54
2019-01-30T09:19:04.823Z,98.74
2019-01-30T09:24:08.844Z,97.18
2019-01-30T09:29:13.158Z,94.99
2019-01-30T09:34:17.197Z,93.06
2019-01-30T09:39:21.567Z,92.44
2019-01-30T09:44:25.606Z,91.33
2019-01-30T09:49:29.691Z,90.15
2019-01-30T09:54:33.750Z,87.93
2019-01-30T09:59:37.710Z,85.81
2019-01-30T10:04:41.950Z,87.21
2019-01-30T10:09:46.098Z,83.93
2019-01-30T10:14:50.157Z,80.93
2019-01-30T10:19:54.257Z,80.15
2019-01-30T10:24:58.699Z,78.62
2019-01-30T10:30:03.767Z,73.90
2019-01-30T10:35:08.026Z,68.49
2019-01-30T10:40:14.506Z,63.80
2019-01-30T10:45:18.843Z,62.22
2019-01-30T10:50:24.459Z,62.97
2019-01-30T10:55:29.874Z,61.26
2019-01-30T11:00:39.637Z,61.03
2019-01-30T11:05:44.414Z,63.23
2019-01-30T11:10:50.792Z,62.62
2019-01-30T11:15:54.529Z,59.87
2019-01-30T11:20:58.560Z,60.98
2019-01-30T11:26:02.718Z,62.76
2019-01-30T11:31:07.690Z,62.05
2019-01-30T11:36:11.866Z,59.47
2019-01-30T11:41:15.995Z,61.22
2019-01-30T11:46:20.054Z,61.02
2019-01-30T11:51:24.568Z,62.14
2019-01-30T11:56:29.723Z,63.76
2019-01-30T12:01:33.783Z,63.03
2019-01-30T12:06:37.933Z,63.75
2019-01-30T12:11:42.500Z,64.61
2019-01-30T12:16:46.573Z,64.69
2019-01-30T12:21:50.885Z,63.97
2019-01-30T12:26:54.908Z,65.63
2019-01-30T12:31:58.980Z,64.17
2019-01-30T12:37:03.192Z,63.31
2019-01-30T12:42:07.562Z,63.58
2019-01-30T12:47:19.661Z,63.04
2019-01-30T12:52:17.721Z,64.04
2019-01-30T12:57:22.023Z,63.17
2019-01-30T13:02:26.060Z,62.89
2019-01-30T13:07:30.500Z,64.34
2019-01-30T13:12:34.595Z,64.52
2019-01-30T13:17:38.659Z,67.40
2019-01-30T13:22:42.879Z,66.33
2019-01-30T13:27:46.902Z,67.71
2019-01-30T13:32:50.989Z,68.94
2019-01-30T13:37:56.521Z,69.37
2019-01-30T13:43:00.606Z,68.93
2019-01-30T13:48:08.285Z,69.94
2019-01-30T13:53:14.341Z,69.52
2019-01-30T13:58:18.029Z,71.15
2019-01-30T14:03:22.089Z,70.10
2019-01-30T14:08:28.085Z,70.36
2019-01-30T14:13:32.112Z,71.41
2019-01-30T14:18:36.363Z,71.38
2019-01-30T14:23:40.769Z,71.81
2019-01-30T14:28:45.075Z,72.46
2019-01-30T14:33:49.222Z,72.34
2019-01-30T14:38:53.565Z,72.75
2019-01-30T14:43:57.684Z,73.51
2019-01-30T14:49:01.735Z,73.85
2019-01-30T14:54:05.755Z,74.24
2019-01-30T14:59:09.879Z,74.86
2019-01-30T15:04:14.008Z,74.57
2019-01-30T15:09:18.009Z,75.23
2019-01-30T15:14:22.005Z,76.06
2019-01-30T15:19:26.353Z,76.69
2019-01-30T15:24:30.310Z,77.87
2019-01-30T15:29:34.352Z,78.03
2019-01-30T15:34:39.449Z,78.26
2019-01-30T15:39:43.762Z,78.74
2019-01-30T15:44:47.862Z,78.84
2019-01-30T15:49:51.889Z,79.73
2019-01-30T15:54:55.918Z,79.63
2019-01-30T16:00:00.334Z,80.51
2019-01-30T16:05:05.897Z,80.57
2019-01-30T16:10:11.015Z,81.16
2019-01-30T16:15:18.947Z,80.95
2019-01-30T16:20:22.987Z,81.31
2019-01-30T16:25:27.072Z,81.09
2019-01-30T16:30:33.217Z,81.00
2019-01-30T16:35:37.269Z,81.20
2019-01-30T16:40:41.369Z,80.73
2019-01-30T16:45:45.411Z,81.38
2019-01-30T16:50:49.536Z,81.01
2019-01-30T16:55:53.536Z,80.75
2019-01-30T17:00:58.422Z,80.90
2019-01-30T17:06:07.446Z,80.79
2019-01-30T17:11:08.240Z,81.35
2019-01-30T17:16:12.253Z,81.90
2019-01-30T17:21:16.659Z,81.79
2019-01-30T17:26:21.027Z,81.28
2019-01-30T17:31:29.768Z,80.79
2019-01-30T17:36:34.093Z,80.04
2019-01-30T17:41:38.635Z,79.57
2019-01-30T17:46:43.119Z,78.77
2019-01-30T17:51:47.419Z,78.71
2019-01-30T17:56:51.445Z,78.38
2019-01-30T18:01:55.462Z,77.77
2019-01-30T18:06:59.522Z,78.02
2019-01-30T18:12:04.246Z,77.60
2019-01-30T18:17:08.602Z,78.04
2019-01-30T18:22:14.105Z,78.43
2019-01-30T18:27:18.122Z,78.69
2019-01-30T18:32:22.404Z,79.16
2019-01-30T18:37:26.437Z,79.81
2019-01-30T18:42:30.508Z,79.90
2019-01-30T18:47:34.502Z,80.54
2019-01-30T18:52:38.680Z,81.35
2019-01-30T18:57:43.433Z,82.75
2019-01-30T19:02:48.265Z,83.15
2019-01-30T19:07:52.572Z,83.45
2019-01-30T19:12:56.775Z,84.21
2019-01-30T19:18:00.870Z,84.35
2019-01-30T19:23:07.014Z,84.83
2019-01-30T19:28:11.184Z,85.32
2019-01-30T19:33:15.277Z,85.60
2019-01-30T19:38:19.391Z,85.55
2019-01-30T19:43:23.462Z,86.39
2019-01-30T19:48:27.565Z,87.00
2019-01-30T19:53:31.722Z,86.87
2019-01-30T19:58:36.833Z,86.54
2019-01-30T20:03:42.130Z,86.14
2019-01-30T20:08:46.330Z,86.31
2019-01-30T20:13:50.728Z,86.16
2019-01-30T20:18:54.791Z,86.04
2019-01-30T20:23:59.406Z,86.12
2019-01-30T20:29:03.521Z,86.37
2019-01-30T20:34:10.376Z,87.07
2019-01-30T20:39:14.511Z,87.10
2019-01-30T20:44:18.542Z,87.81
2019-01-30T20:49:22.612Z,87.84
2019-01-30T20:54:26.737Z,88.81
2019-01-30T20:59:30.720Z,88.86
2019-01-30T21:04:35.122Z,89.02
2019-01-30T21:09:39.956Z,88.77
2019-01-30T21:14:44.778Z,89.27
2019-01-30T21:19:49.445Z,88.72
2019-01-30T21:24:53.579Z,88.75
2019-01-30T21:29:58.179Z,89.02
2019-01-30T21:35:02.590Z,89.11
2019-01-30T21:40:07.970Z,89.65
2019-01-30T21:45:14.729Z,89.39
2019-01-30T21:50:19.448Z,89.23
2019-01-30T21:55:24.033Z,88.98
2019-01-30T22:00:28.941Z,89.23
2019-01-30T22:05:33.016Z,89.98
2019-01-30T22:10:37.034Z,90.15
2019-01-30T22:15:41.567Z,89.64
2019-01-30T22:20:45.719Z,90.06
2019-01-30T22:25:50.014Z,90.45
2019-01-30T22:30:54.082Z,90.61
2019-01-30T22:35:58.136Z,90.22
2019-01-30T22:41:02.201Z,89.79
2019-01-30T22:46:06.365Z,89.67
2019-01-30T22:51:10.410Z,89.71
2019-01-30T22:56:14.457Z,89.27
2019-01-30T23:01:36.561Z,88.92
2019-01-30T23:07:05.021Z,89.10
2019-01-30T23:12:28.324Z,88.29
2019-01-30T23:18:28.234Z,88.40
2019-01-30T23:24:12.114Z,88.18
2019-01-30T23:29:52.201Z,87.56
2019-01-30T23:35:31.179Z,87.62
2019-01-30T23:41:19.162Z,88.06
2019-01-30T23:46:52.352Z,88.32
2019-01-30T23:52:40.902Z,88.24
2019-01-30T23:58:27.640Z,89.19
